sensor_id;sensor_type;location;lat;lon;timestamp;P1;durP1;ratioP1;P2;durP2;ratioP2
21299;SDS011;10809;49.476;11.016;2023-03-20T00:02:22;3.47;;;2.27;;
21299;SDS011;10809;49.476;11.016;2023-03-20T00:04:53;5.63;;;3.03;;
21299;SDS011;10809;49.476;11.016;2023-03-20T00:07:24;4.57;;;2.73;;
21299;SDS011;10809;49.476;11.016;2023-03-20T00:09:55;3.70;;;2.83;;
21299;SDS011;10809;49.476;11.016;2023-03-20T00:12:26;3.00;;;2.70;;
21299;SDS011;10809;49.476;11.016;2023-03-20T00:15:00;3.67;;;2.43;;
21299;SDS011;10809;49.476;11.016;2023-03-20T00:17:37;3.57;;;2.90;;
21299;SDS011;10809;49.476;11.016;2023-03-20T00:20:14;3.23;;;2.73;;
21299;SDS011;10809;49.476;11.016;2023-03-20T00:22:48;5.53;;;3.80;;
21299;SDS011;10809;49.476;11.016;2023-03-20T00:25:21;3.30;;;3.10;;
21299;SDS011;10809;49.476;11.016;2023-03-20T00:27:53;2.93;;;2.73;;
21299;SDS011;10809;49.476;11.016;2023-03-20T00:30:29;2.73;;;2.50;;
21299;SDS011;10809;49.476;11.016;2023-03-20T00:33:00;3.27;;;2.80;;
21299;SDS011;10809;49.476;11.016;2023-03-20T00:35:30;3.57;;;2.73;;
21299;SDS011;10809;49.476;11.016;2023-03-20T00:38:01;4.43;;;2.63;;
21299;SDS011;10809;49.476;11.016;2023-03-20T00:40:40;3.47;;;2.10;;
21299;SDS011;10809;49.476;11.016;2023-03-20T00:43:14;1.87;;;1.53;;
21299;SDS011;10809;49.476;11.016;2023-03-20T00:45:45;2.47;;;2.00;;
21299;SDS011;10809;49.476;11.016;2023-03-20T00:48:15;2.17;;;1.97;;
21299;SDS011;10809;49.476;11.016;2023-03-20T00:50:46;2.10;;;1.90;;
21299;SDS011;10809;49.476;11.016;2023-03-20T00:53:18;2.03;;;1.67;;
21299;SDS011;10809;49.476;11.016;2023-03-20T00:55:52;3.13;;;2.07;;
21299;SDS011;10809;49.476;11.016;2023-03-20T00:58:22;2.17;;;1.97;;
21299;SDS011;10809;49.476;11.016;2023-03-20T01:00:53;2.53;;;2.00;;
21299;SDS011;10809;49.476;11.016;2023-03-20T01:03:25;1.77;;;1.67;;
21299;SDS011;10809;49.476;11.016;2023-03-20T01:05:57;2.80;;;1.97;;
21299;SDS011;10809;49.476;11.016;2023-03-20T01:08:27;2.83;;;1.97;;
21299;SDS011;10809;49.476;11.016;2023-03-20T01:10:58;2.13;;;1.93;;
21299;SDS011;10809;49.476;11.016;2023-03-20T01:13:29;2.00;;;1.57;;
21299;SDS011;10809;49.476;11.016;2023-03-20T01:16:04;2.80;;;1.73;;
21299;SDS011;10809;49.476;11.016;2023-03-20T01:18:40;2.17;;;1.97;;
21299;SDS011;10809;49.476;11.016;2023-03-20T01:21:13;2.60;;;2.20;;
21299;SDS011;10809;49.476;11.016;2023-03-20T01:23:44;2.93;;;1.93;;
21299;SDS011;10809;49.476;11.016;2023-03-20T01:26:25;2.70;;;2.20;;
21299;SDS011;10809;49.476;11.016;2023-03-20T01:29:01;1.77;;;1.67;;
21299;SDS011;10809;49.476;11.016;2023-03-20T01:31:35;2.30;;;2.10;;
21299;SDS011;10809;49.476;11.016;2023-03-20T01:34:08;2.43;;;2.00;;
21299;SDS011;10809;49.476;11.016;2023-03-20T01:36:39;2.20;;;2.00;;
21299;SDS011;10809;49.476;11.016;2023-03-20T01:39:16;2.07;;;1.73;;
21299;SDS011;10809;49.476;11.016;2023-03-20T01:42:00;2.80;;;2.10;;
21299;SDS011;10809;49.476;11.016;2023-03-20T01:44:34;2.10;;;1.90;;
21299;SDS011;10809;49.476;11.016;2023-03-20T01:47:10;2.80;;;2.10;;
21299;SDS011;10809;49.476;11.016;2023-03-20T01:52:56;2.73;;;2.00;;
21299;SDS011;10809;49.476;11.016;2023-03-20T01:55:55;5.23;;;1.80;;
21299;SDS011;10809;49.476;11.016;2023-03-20T01:58:35;2.47;;;1.90;;
21299;SDS011;10809;49.476;11.016;2023-03-20T02:01:11;5.63;;;2.40;;
21299;SDS011;10809;49.476;11.016;2023-03-20T02:03:45;2.60;;;1.80;;
21299;SDS011;10809;49.476;11.016;2023-03-20T02:06:48;2.93;;;2.30;;
21299;SDS011;10809;49.476;11.016;2023-03-20T02:09:22;5.00;;;2.13;;
21299;SDS011;10809;49.476;11.016;2023-03-20T02:11:56;2.20;;;2.00;;
21299;SDS011;10809;49.476;11.016;2023-03-20T02:14:28;4.13;;;2.37;;
21299;SDS011;10809;49.476;11.016;2023-03-20T02:17:07;2.07;;;1.87;;
21299;SDS011;10809;49.476;11.016;2023-03-20T02:26:44;2.03;;;1.93;;
21299;SDS011;10809;49.476;11.016;2023-03-20T02:45:12;2.80;;;2.20;;
21299;SDS011;10809;49.476;11.016;2023-03-20T02:48:11;4.50;;;1.90;;
21299;SDS011;10809;49.476;11.016;2023-03-20T02:51:03;3.40;;;1.90;;
21299;SDS011;10809;49.476;11.016;2023-03-20T02:57:02;3.57;;;2.70;;
21299;SDS011;10809;49.476;11.016;2023-03-20T03:02:39;2.50;;;2.30;;
21299;SDS011;10809;49.476;11.016;2023-03-20T03:05:20;2.53;;;2.23;;
21299;SDS011;10809;49.476;11.016;2023-03-20T03:08:04;3.50;;;2.60;;
21299;SDS011;10809;49.476;11.016;2023-03-20T03:10:42;2.93;;;2.70;;
21299;SDS011;10809;49.476;11.016;2023-03-20T03:13:19;3.00;;;2.37;;
21299;SDS011;10809;49.476;11.016;2023-03-20T03:15:55;2.73;;;2.53;;
21299;SDS011;10809;49.476;11.016;2023-03-20T03:18:32;3.23;;;2.40;;
21299;SDS011;10809;49.476;11.016;2023-03-20T03:21:05;2.67;;;2.17;;
21299;SDS011;10809;49.476;11.016;2023-03-20T03:23:42;2.50;;;2.30;;
21299;SDS011;10809;49.476;11.016;2023-03-20T03:26:22;2.67;;;2.47;;
21299;SDS011;10809;49.476;11.016;2023-03-20T03:29:10;2.20;;;2.00;;
21299;SDS011;10809;49.476;11.016;2023-03-20T03:31:44;2.57;;;2.37;;
21299;SDS011;10809;49.476;11.016;2023-03-20T03:34:16;2.33;;;2.10;;
21299;SDS011;10809;49.476;11.016;2023-03-20T03:36:53;2.60;;;2.40;;
21299;SDS011;10809;49.476;11.016;2023-03-20T03:40:06;3.27;;;3.07;;
21299;SDS011;10809;49.476;11.016;2023-03-20T03:42:42;3.70;;;2.37;;
21299;SDS011;10809;49.476;11.016;2023-03-20T03:45:27;2.63;;;2.43;;
21299;SDS011;10809;49.476;11.016;2023-03-20T03:48:27;2.80;;;2.53;;
21299;SDS011;10809;49.476;11.016;2023-03-20T03:51:13;2.87;;;2.57;;
21299;SDS011;10809;49.476;11.016;2023-03-20T03:54:21;3.63;;;3.10;;
21299;SDS011;10809;49.476;11.016;2023-03-20T03:57:27;3.27;;;2.60;;
21299;SDS011;10809;49.476;11.016;2023-03-20T04:00:12;3.33;;;3.03;;
21299;SDS011;10809;49.476;11.016;2023-03-20T04:02:55;3.40;;;3.10;;
21299;SDS011;10809;49.476;11.016;2023-03-20T04:05:29;3.43;;;2.93;;
21299;SDS011;10809;49.476;11.016;2023-03-20T04:08:02;4.43;;;3.30;;
21299;SDS011;10809;49.476;11.016;2023-03-20T04:10:34;5.53;;;3.07;;
21299;SDS011;10809;49.476;11.016;2023-03-20T04:13:05;8.40;;;3.17;;
21299;SDS011;10809;49.476;11.016;2023-03-20T04:15:36;4.13;;;3.73;;
21299;SDS011;10809;49.476;11.016;2023-03-20T04:18:12;4.47;;;3.63;;
21299;SDS011;10809;49.476;11.016;2023-03-20T04:20:49;5.00;;;3.93;;
21299;SDS011;10809;49.476;11.016;2023-03-20T04:23:21;3.93;;;3.63;;
21299;SDS011;10809;49.476;11.016;2023-03-20T04:25:52;4.37;;;3.97;;
21299;SDS011;10809;49.476;11.016;2023-03-20T04:28:22;4.43;;;4.03;;
21299;SDS011;10809;49.476;11.016;2023-03-20T04:31:16;4.30;;;3.90;;
21299;SDS011;10809;49.476;11.016;2023-03-20T04:33:59;7.20;;;4.30;;
21299;SDS011;10809;49.476;11.016;2023-03-20T04:36:50;3.80;;;3.47;;
21299;SDS011;10809;49.476;11.016;2023-03-20T04:39:21;4.43;;;3.97;;
21299;SDS011;10809;49.476;11.016;2023-03-20T04:41:56;5.13;;;4.17;;
21299;SDS011;10809;49.476;11.016;2023-03-20T04:44:27;5.27;;;4.27;;
21299;SDS011;10809;49.476;11.016;2023-03-20T04:47:02;6.03;;;4.67;;
21299;SDS011;10809;49.476;11.016;2023-03-20T04:49:36;4.47;;;3.77;;
21299;SDS011;10809;49.476;11.016;2023-03-20T04:52:06;4.90;;;4.17;;
21299;SDS011;10809;49.476;11.016;2023-03-20T04:54:41;5.73;;;5.00;;
21299;SDS011;10809;49.476;11.016;2023-03-20T04:57:15;6.13;;;5.40;;
21299;SDS011;10809;49.476;11.016;2023-03-20T04:59:46;5.00;;;4.47;;
21299;SDS011;10809;49.476;11.016;2023-03-20T05:02:16;5.77;;;5.13;;
21299;SDS011;10809;49.476;11.016;2023-03-20T05:04:47;5.57;;;5.07;;
21299;SDS011;10809;49.476;11.016;2023-03-20T05:07:18;5.73;;;5.10;;
21299;SDS011;10809;49.476;11.016;2023-03-20T05:10:00;7.00;;;6.30;;
21299;SDS011;10809;49.476;11.016;2023-03-20T05:15:41;5.47;;;4.97;;
21299;SDS011;10809;49.476;11.016;2023-03-20T05:18:50;6.33;;;5.50;;
21299;SDS011;10809;49.476;11.016;2023-03-20T05:21:46;6.57;;;5.57;;
21299;SDS011;10809;49.476;11.016;2023-03-20T05:24:19;6.97;;;5.83;;
21299;SDS011;10809;49.476;11.016;2023-03-20T05:27:15;6.90;;;5.63;;
21299;SDS011;10809;49.476;11.016;2023-03-20T05:29:59;5.97;;;5.37;;
21299;SDS011;10809;49.476;11.016;2023-03-20T05:32:48;6.87;;;5.40;;
21299;SDS011;10809;49.476;11.016;2023-03-20T05:35:31;6.50;;;5.83;;
21299;SDS011;10809;49.476;11.016;2023-03-20T05:38:31;6.77;;;5.73;;
21299;SDS011;10809;49.476;11.016;2023-03-20T05:41:45;6.00;;;5.00;;
21299;SDS011;10809;49.476;11.016;2023-03-20T05:44:40;6.13;;;5.53;;
21299;SDS011;10809;49.476;11.016;2023-03-20T05:47:52;6.47;;;5.80;;
21299;SDS011;10809;49.476;11.016;2023-03-20T05:50:29;5.97;;;5.37;;
21299;SDS011;10809;49.476;11.016;2023-03-20T05:53:18;6.53;;;5.93;;
21299;SDS011;10809;49.476;11.016;2023-03-20T05:56:11;6.30;;;5.43;;
21299;SDS011;10809;49.476;11.016;2023-03-20T05:59:01;6.37;;;5.83;;
21299;SDS011;10809;49.476;11.016;2023-03-20T06:01:50;6.70;;;5.93;;
21299;SDS011;10809;49.476;11.016;2023-03-20T06:04:31;6.77;;;6.07;;
21299;SDS011;10809;49.476;11.016;2023-03-20T06:07:31;8.13;;;5.83;;
21299;SDS011;10809;49.476;11.016;2023-03-20T06:10:12;8.17;;;5.70;;
21299;SDS011;10809;49.476;11.016;2023-03-20T06:12:43;6.20;;;5.60;;
21299;SDS011;10809;49.476;11.016;2023-03-20T06:15:14;6.53;;;5.93;;
21299;SDS011;10809;49.476;11.016;2023-03-20T06:17:49;7.47;;;5.67;;
21299;SDS011;10809;49.476;11.016;2023-03-20T06:20:32;6.00;;;5.30;;
21299;SDS011;10809;49.476;11.016;2023-03-20T06:23:06;6.30;;;5.70;;
21299;SDS011;10809;49.476;11.016;2023-03-20T06:25:37;6.20;;;5.63;;
21299;SDS011;10809;49.476;11.016;2023-03-20T06:28:08;6.63;;;5.93;;
21299;SDS011;10809;49.476;11.016;2023-03-20T06:30:39;6.17;;;5.57;;
21299;SDS011;10809;49.476;11.016;2023-03-20T06:33:12;6.47;;;5.63;;
21299;SDS011;10809;49.476;11.016;2023-03-20T06:35:57;7.30;;;5.47;;
21299;SDS011;10809;49.476;11.016;2023-03-20T06:38:30;6.87;;;5.97;;
21299;SDS011;10809;49.476;11.016;2023-03-20T06:41:02;6.40;;;5.43;;
21299;SDS011;10809;49.476;11.016;2023-03-20T06:43:36;8.70;;;5.97;;
21299;SDS011;10809;49.476;11.016;2023-03-20T06:46:06;6.37;;;5.53;;
21299;SDS011;10809;49.476;11.016;2023-03-20T06:48:38;8.20;;;6.57;;
21299;SDS011;10809;49.476;11.016;2023-03-20T06:51:10;7.20;;;6.20;;
21299;SDS011;10809;49.476;11.016;2023-03-20T06:53:51;6.70;;;5.30;;
21299;SDS011;10809;49.476;11.016;2023-03-20T06:56:25;6.20;;;5.60;;
21299;SDS011;10809;49.476;11.016;2023-03-20T06:58:57;7.83;;;5.97;;
21299;SDS011;10809;49.476;11.016;2023-03-20T07:01:28;7.17;;;6.20;;
21299;SDS011;10809;49.476;11.016;2023-03-20T07:03:58;5.53;;;4.90;;
21299;SDS011;10809;49.476;11.016;2023-03-20T07:06:39;4.90;;;4.40;;
21299;SDS011;10809;49.476;11.016;2023-03-20T07:09:13;5.27;;;4.27;;
21299;SDS011;10809;49.476;11.016;2023-03-20T07:11:43;4.97;;;4.47;;
21299;SDS011;10809;49.476;11.016;2023-03-20T07:14:18;3.80;;;3.47;;
21299;SDS011;10809;49.476;11.016;2023-03-20T07:17:04;4.73;;;4.23;;
21299;SDS011;10809;49.476;11.016;2023-03-20T07:19:39;4.10;;;3.70;;
21299;SDS011;10809;49.476;11.016;2023-03-20T07:22:26;5.93;;;4.47;;
21299;SDS011;10809;49.476;11.016;2023-03-20T07:25:16;4.67;;;4.27;;
21299;SDS011;10809;49.476;11.016;2023-03-20T07:27:47;4.97;;;4.33;;
21299;SDS011;10809;49.476;11.016;2023-03-20T07:30:21;4.90;;;4.50;;
21299;SDS011;10809;49.476;11.016;2023-03-20T07:32:53;4.43;;;3.97;;
21299;SDS011;10809;49.476;11.016;2023-03-20T07:35:28;4.43;;;4.03;;
21299;SDS011;10809;49.476;11.016;2023-03-20T07:38:02;6.27;;;4.50;;
21299;SDS011;10809;49.476;11.016;2023-03-20T07:40:46;4.03;;;3.73;;
21299;SDS011;10809;49.476;11.016;2023-03-20T07:43:22;4.47;;;4.13;;
21299;SDS011;10809;49.476;11.016;2023-03-20T07:46:28;4.53;;;3.80;;
21299;SDS011;10809;49.476;11.016;2023-03-20T07:49:01;4.30;;;3.90;;
21299;SDS011;10809;49.476;11.016;2023-03-20T07:51:32;3.87;;;3.57;;
21299;SDS011;10809;49.476;11.016;2023-03-20T07:54:02;4.07;;;3.67;;
21299;SDS011;10809;49.476;11.016;2023-03-20T07:56:33;3.47;;;3.17;;
21299;SDS011;10809;49.476;11.016;2023-03-20T07:59:04;3.70;;;2.93;;
21299;SDS011;10809;49.476;11.016;2023-03-20T08:01:34;3.90;;;3.50;;
21299;SDS011;10809;49.476;11.016;2023-03-20T08:04:05;3.60;;;3.30;;
21299;SDS011;10809;49.476;11.016;2023-03-20T08:06:35;3.80;;;3.50;;
21299;SDS011;10809;49.476;11.016;2023-03-20T08:09:08;3.50;;;3.20;;
21299;SDS011;10809;49.476;11.016;2023-03-20T08:11:39;3.30;;;2.97;;
21299;SDS011;10809;49.476;11.016;2023-03-20T08:14:09;3.07;;;2.77;;
21299;SDS011;10809;49.476;11.016;2023-03-20T08:16:40;3.37;;;3.07;;
21299;SDS011;10809;49.476;11.016;2023-03-20T08:19:17;3.50;;;3.20;;
21299;SDS011;10809;49.476;11.016;2023-03-20T08:21:47;3.30;;;3.00;;
21299;SDS011;10809;49.476;11.016;2023-03-20T08:24:19;2.80;;;2.60;;
21299;SDS011;10809;49.476;11.016;2023-03-20T08:26:49;5.30;;;2.60;;
21299;SDS011;10809;49.476;11.016;2023-03-20T08:29:20;3.60;;;3.30;;
21299;SDS011;10809;49.476;11.016;2023-03-20T08:31:51;3.17;;;2.87;;
21299;SDS011;10809;49.476;11.016;2023-03-20T08:34:27;4.57;;;3.20;;
21299;SDS011;10809;49.476;11.016;2023-03-20T08:36:58;3.10;;;2.80;;
21299;SDS011;10809;49.476;11.016;2023-03-20T08:39:28;3.30;;;3.00;;
21299;SDS011;10809;49.476;11.016;2023-03-20T08:41:59;3.37;;;2.93;;
21299;SDS011;10809;49.476;11.016;2023-03-20T08:44:32;2.87;;;2.67;;
21299;SDS011;10809;49.476;11.016;2023-03-20T08:47:21;2.93;;;2.63;;
21299;SDS011;10809;49.476;11.016;2023-03-20T08:49:51;2.60;;;2.40;;
21299;SDS011;10809;49.476;11.016;2023-03-20T08:52:22;2.70;;;2.50;;
21299;SDS011;10809;49.476;11.016;2023-03-20T08:54:52;2.60;;;2.40;;
21299;SDS011;10809;49.476;11.016;2023-03-20T08:57:23;2.40;;;2.20;;
21299;SDS011;10809;49.476;11.016;2023-03-20T08:59:53;2.70;;;2.50;;
21299;SDS011;10809;49.476;11.016;2023-03-20T09:02:24;3.40;;;2.77;;
21299;SDS011;10809;49.476;11.016;2023-03-20T09:04:57;2.67;;;2.47;;
21299;SDS011;10809;49.476;11.016;2023-03-20T09:07:28;3.20;;;2.70;;
21299;SDS011;10809;49.476;11.016;2023-03-20T09:10:02;3.07;;;2.77;;
21299;SDS011;10809;49.476;11.016;2023-03-20T09:12:36;2.37;;;2.10;;
21299;SDS011;10809;49.476;11.016;2023-03-20T09:15:07;3.03;;;2.77;;
21299;SDS011;10809;49.476;11.016;2023-03-20T09:17:38;2.50;;;2.30;;
21299;SDS011;10809;49.476;11.016;2023-03-20T09:20:12;4.33;;;2.63;;
21299;SDS011;10809;49.476;11.016;2023-03-20T09:22:42;2.40;;;2.20;;
21299;SDS011;10809;49.476;11.016;2023-03-20T09:25:14;4.90;;;2.40;;
21299;SDS011;10809;49.476;11.016;2023-03-20T09:27:45;2.50;;;2.30;;
21299;SDS011;10809;49.476;11.016;2023-03-20T09:30:16;3.23;;;2.27;;
21299;SDS011;10809;49.476;11.016;2023-03-20T09:32:46;2.30;;;2.10;;
21299;SDS011;10809;49.476;11.016;2023-03-20T09:35:17;2.50;;;2.30;;
21299;SDS011;10809;49.476;11.016;2023-03-20T09:37:48;2.40;;;2.20;;
21299;SDS011;10809;49.476;11.016;2023-03-20T09:55:13;2.20;;;2.00;;
21299;SDS011;10809;49.476;11.016;2023-03-20T09:57:45;3.40;;;2.20;;
21299;SDS011;10809;49.476;11.016;2023-03-20T10:00:21;2.50;;;2.30;;
21299;SDS011;10809;49.476;11.016;2023-03-20T10:03:05;2.00;;;1.83;;
21299;SDS011;10809;49.476;11.016;2023-03-20T10:06:00;3.10;;;2.50;;
21299;SDS011;10809;49.476;11.016;2023-03-20T10:08:36;2.87;;;2.63;;
21299;SDS011;10809;49.476;11.016;2023-03-20T10:14:10;2.87;;;2.07;;
21299;SDS011;10809;49.476;11.016;2023-03-20T10:16:58;2.30;;;2.10;;
21299;SDS011;10809;49.476;11.016;2023-03-20T10:36:42;1.87;;;1.77;;
21299;SDS011;10809;49.476;11.016;2023-03-20T10:42:02;1.97;;;1.87;;
21299;SDS011;10809;49.476;11.016;2023-03-20T10:44:40;2.70;;;2.20;;
21299;SDS011;10809;49.476;11.016;2023-03-20T10:47:18;2.27;;;2.07;;
21299;SDS011;10809;49.476;11.016;2023-03-20T10:49:53;2.00;;;1.90;;
21299;SDS011;10809;49.476;11.016;2023-03-20T10:52:32;4.10;;;2.20;;
21299;SDS011;10809;49.476;11.016;2023-03-20T10:55:17;2.73;;;2.13;;
21299;SDS011;10809;49.476;11.016;2023-03-20T10:58:14;2.00;;;1.80;;
21299;SDS011;10809;49.476;11.016;2023-03-20T11:00:46;2.27;;;1.97;;
21299;SDS011;10809;49.476;11.016;2023-03-20T11:03:21;2.00;;;1.87;;
21299;SDS011;10809;49.476;11.016;2023-03-20T11:06:17;1.93;;;1.73;;
21299;SDS011;10809;49.476;11.016;2023-03-20T11:08:55;2.57;;;2.00;;
21299;SDS011;10809;49.476;11.016;2023-03-20T11:11:26;2.30;;;2.10;;
21299;SDS011;10809;49.476;11.016;2023-03-20T11:14:08;2.33;;;2.13;;
21299;SDS011;10809;49.476;11.016;2023-03-20T11:16:48;2.33;;;2.13;;
21299;SDS011;10809;49.476;11.016;2023-03-20T11:19:22;2.77;;;2.17;;
21299;SDS011;10809;49.476;11.016;2023-03-20T11:21:54;2.07;;;1.87;;
21299;SDS011;10809;49.476;11.016;2023-03-20T11:29:39;2.70;;;2.50;;
21299;SDS011;10809;49.476;11.016;2023-03-20T11:35:09;2.90;;;2.23;;
21299;SDS011;10809;49.476;11.016;2023-03-20T11:38:21;2.77;;;2.53;;
21299;SDS011;10809;49.476;11.016;2023-03-20T11:40:53;3.27;;;2.30;;
21299;SDS011;10809;49.476;11.016;2023-03-20T11:43:25;2.77;;;2.50;;
21299;SDS011;10809;49.476;11.016;2023-03-20T11:45:58;1.97;;;1.87;;
21299;SDS011;10809;49.476;11.016;2023-03-20T11:48:37;2.47;;;2.27;;
21299;SDS011;10809;49.476;11.016;2023-03-20T11:51:16;2.83;;;2.47;;
21299;SDS011;10809;49.476;11.016;2023-03-20T11:56:52;4.70;;;2.37;;
21299;SDS011;10809;49.476;11.016;2023-03-20T11:59:25;3.17;;;2.47;;
21299;SDS011;10809;49.476;11.016;2023-03-20T12:02:02;3.17;;;2.53;;
21299;SDS011;10809;49.476;11.016;2023-03-20T12:04:35;3.57;;;2.60;;
21299;SDS011;10809;49.476;11.016;2023-03-20T12:07:24;2.40;;;2.20;;
21299;SDS011;10809;49.476;11.016;2023-03-20T12:10:03;2.33;;;2.13;;
21299;SDS011;10809;49.476;11.016;2023-03-20T12:19:02;2.97;;;2.50;;
21299;SDS011;10809;49.476;11.016;2023-03-20T12:21:21;2.70;;;2.20;;
21299;SDS011;10809;49.476;11.016;2023-03-20T12:30:09;2.47;;;2.27;;
21299;SDS011;10809;49.476;11.016;2023-03-20T12:35:57;2.40;;;2.20;;
21299;SDS011;10809;49.476;11.016;2023-03-20T12:38:33;2.63;;;2.43;;
21299;SDS011;10809;49.476;11.016;2023-03-20T12:41:10;2.63;;;2.43;;
21299;SDS011;10809;49.476;11.016;2023-03-20T12:46:58;3.43;;;2.63;;
21299;SDS011;10809;49.476;11.016;2023-03-20T13:04:10;2.30;;;2.10;;
21299;SDS011;10809;49.476;11.016;2023-03-20T13:07:16;3.13;;;2.00;;
21299;SDS011;10809;49.476;11.016;2023-03-20T13:15:50;1.93;;;1.80;;
21299;SDS011;10809;49.476;11.016;2023-03-20T13:30:27;2.47;;;2.27;;
21299;SDS011;10809;49.476;11.016;2023-03-20T13:39:13;2.27;;;2.00;;
21299;SDS011;10809;49.476;11.016;2023-03-20T13:41:58;3.27;;;2.50;;
21299;SDS011;10809;49.476;11.016;2023-03-20T13:44:30;2.57;;;2.37;;
21299;SDS011;10809;49.476;11.016;2023-03-20T13:47:14;3.10;;;2.53;;
21299;SDS011;10809;49.476;11.016;2023-03-20T13:52:29;3.27;;;2.87;;
21299;SDS011;10809;49.476;11.016;2023-03-20T14:00:49;4.00;;;2.37;;
21299;SDS011;10809;49.476;11.016;2023-03-20T14:03:30;2.77;;;2.27;;
21299;SDS011;10809;49.476;11.016;2023-03-20T14:08:58;4.50;;;2.97;;
21299;SDS011;10809;49.476;11.016;2023-03-20T14:11:30;2.93;;;2.60;;
21299;SDS011;10809;49.476;11.016;2023-03-20T14:14:14;3.43;;;2.77;;
21299;SDS011;10809;49.476;11.016;2023-03-20T14:17:03;4.00;;;2.90;;
21299;SDS011;10809;49.476;11.016;2023-03-20T14:19:36;3.13;;;2.83;;
21299;SDS011;10809;49.476;11.016;2023-03-20T14:22:13;3.33;;;2.80;;
21299;SDS011;10809;49.476;11.016;2023-03-20T14:24:58;8.77;;;2.73;;
21299;SDS011;10809;49.476;11.016;2023-03-20T14:27:34;4.33;;;3.10;;
21299;SDS011;10809;49.476;11.016;2023-03-20T14:35:47;3.80;;;3.13;;
21299;SDS011;10809;49.476;11.016;2023-03-20T14:44:11;7.07;;;3.20;;
21299;SDS011;10809;49.476;11.016;2023-03-20T14:46:51;3.83;;;3.10;;
21299;SDS011;10809;49.476;11.016;2023-03-20T14:55:33;6.23;;;3.80;;
21299;SDS011;10809;49.476;11.016;2023-03-20T15:04:07;4.70;;;3.37;;
21299;SDS011;10809;49.476;11.016;2023-03-20T15:09:59;3.90;;;3.27;;
21299;SDS011;10809;49.476;11.016;2023-03-20T15:12:35;5.53;;;3.93;;
21299;SDS011;10809;49.476;11.016;2023-03-20T15:15:07;4.60;;;3.60;;
21299;SDS011;10809;49.476;11.016;2023-03-20T15:17:53;4.37;;;3.27;;
21299;SDS011;10809;49.476;11.016;2023-03-20T15:20:25;4.73;;;3.90;;
21299;SDS011;10809;49.476;11.016;2023-03-20T15:22:59;5.97;;;4.40;;
21299;SDS011;10809;49.476;11.016;2023-03-20T15:25:38;5.63;;;3.93;;
21299;SDS011;10809;49.476;11.016;2023-03-20T15:28:12;4.30;;;3.60;;
21299;SDS011;10809;49.476;11.016;2023-03-20T15:30:45;5.87;;;4.70;;
21299;SDS011;10809;49.476;11.016;2023-03-20T15:33:29;5.10;;;4.17;;
21299;SDS011;10809;49.476;11.016;2023-03-20T15:36:05;6.17;;;4.37;;
21299;SDS011;10809;49.476;11.016;2023-03-20T15:38:38;4.67;;;4.00;;
21299;SDS011;10809;49.476;11.016;2023-03-20T15:41:22;5.33;;;4.13;;
21299;SDS011;10809;49.476;11.016;2023-03-20T15:46:53;7.60;;;3.83;;
21299;SDS011;10809;49.476;11.016;2023-03-20T15:49:27;5.47;;;3.73;;
21299;SDS011;10809;49.476;11.016;2023-03-20T15:52:09;5.67;;;4.03;;
21299;SDS011;10809;49.476;11.016;2023-03-20T15:54:47;6.17;;;4.30;;
21299;SDS011;10809;49.476;11.016;2023-03-20T15:57:20;4.77;;;3.90;;
21299;SDS011;10809;49.476;11.016;2023-03-20T15:59:56;8.07;;;4.30;;
21299;SDS011;10809;49.476;11.016;2023-03-20T16:02:28;4.90;;;3.87;;
21299;SDS011;10809;49.476;11.016;2023-03-20T16:04:59;4.20;;;3.80;;
21299;SDS011;10809;49.476;11.016;2023-03-20T16:07:31;3.57;;;3.17;;
21299;SDS011;10809;49.476;11.016;2023-03-20T16:10:02;4.13;;;2.90;;
21299;SDS011;10809;49.476;11.016;2023-03-20T16:12:51;3.33;;;3.00;;
21299;SDS011;10809;49.476;11.016;2023-03-20T16:15:26;2.90;;;2.57;;
21299;SDS011;10809;49.476;11.016;2023-03-20T16:18:00;4.47;;;3.50;;
21299;SDS011;10809;49.476;11.016;2023-03-20T16:20:34;4.50;;;3.13;;
21299;SDS011;10809;49.476;11.016;2023-03-20T16:23:09;3.40;;;2.83;;
21299;SDS011;10809;49.476;11.016;2023-03-20T16:25:40;3.87;;;3.17;;
21299;SDS011;10809;49.476;11.016;2023-03-20T16:28:10;3.80;;;3.40;;
21299;SDS011;10809;49.476;11.016;2023-03-20T16:30:46;4.53;;;3.03;;
21299;SDS011;10809;49.476;11.016;2023-03-20T16:33:20;3.10;;;2.70;;
21299;SDS011;10809;49.476;11.016;2023-03-20T16:35:53;3.60;;;3.10;;
21299;SDS011;10809;49.476;11.016;2023-03-20T16:38:25;3.20;;;2.60;;
21299;SDS011;10809;49.476;11.016;2023-03-20T16:44:19;2.43;;;2.23;;
21299;SDS011;10809;49.476;11.016;2023-03-20T16:46:53;3.73;;;2.93;;
21299;SDS011;10809;49.476;11.016;2023-03-20T16:52:08;4.57;;;3.30;;
21299;SDS011;10809;49.476;11.016;2023-03-20T16:54:46;4.77;;;3.30;;
21299;SDS011;10809;49.476;11.016;2023-03-20T16:57:17;3.63;;;3.23;;
21299;SDS011;10809;49.476;11.016;2023-03-20T17:00:00;4.13;;;3.10;;
21299;SDS011;10809;49.476;11.016;2023-03-20T17:02:59;5.60;;;3.10;;
21299;SDS011;10809;49.476;11.016;2023-03-20T17:08:24;4.80;;;3.23;;
21299;SDS011;10809;49.476;11.016;2023-03-20T17:11:06;3.27;;;2.97;;
21299;SDS011;10809;49.476;11.016;2023-03-20T17:13:41;5.40;;;3.13;;
21299;SDS011;10809;49.476;11.016;2023-03-20T17:16:18;3.27;;;2.97;;
21299;SDS011;10809;49.476;11.016;2023-03-20T17:18:57;3.90;;;3.10;;
21299;SDS011;10809;49.476;11.016;2023-03-20T17:21:35;4.30;;;3.17;;
21299;SDS011;10809;49.476;11.016;2023-03-20T17:24:09;3.63;;;3.20;;
21299;SDS011;10809;49.476;11.016;2023-03-20T17:26:41;4.13;;;3.67;;
21299;SDS011;10809;49.476;11.016;2023-03-20T17:29:13;3.07;;;2.77;;
21299;SDS011;10809;49.476;11.016;2023-03-20T17:31:44;4.90;;;3.30;;
21299;SDS011;10809;49.476;11.016;2023-03-20T17:34:21;4.60;;;3.40;;
21299;SDS011;10809;49.476;11.016;2023-03-20T17:36:51;3.27;;;2.97;;
21299;SDS011;10809;49.476;11.016;2023-03-20T17:39:22;3.40;;;2.83;;
21299;SDS011;10809;49.476;11.016;2023-03-20T17:41:54;4.57;;;3.33;;
21299;SDS011;10809;49.476;11.016;2023-03-20T17:44:24;4.60;;;3.60;;
21299;SDS011;10809;49.476;11.016;2023-03-20T17:46:58;4.03;;;3.30;;
21299;SDS011;10809;49.476;11.016;2023-03-20T17:49:33;5.27;;;3.30;;
21299;SDS011;10809;49.476;11.016;2023-03-20T17:52:03;4.33;;;3.30;;
21299;SDS011;10809;49.476;11.016;2023-03-20T17:54:34;4.83;;;3.67;;
21299;SDS011;10809;49.476;11.016;2023-03-20T17:57:05;4.43;;;3.43;;
21299;SDS011;10809;49.476;11.016;2023-03-20T17:59:46;4.00;;;3.60;;
21299;SDS011;10809;49.476;11.016;2023-03-20T18:02:18;5.30;;;4.00;;
21299;SDS011;10809;49.476;11.016;2023-03-20T18:04:49;5.07;;;3.87;;
21299;SDS011;10809;49.476;11.016;2023-03-20T18:07:19;5.77;;;3.73;;
21299;SDS011;10809;49.476;11.016;2023-03-20T18:09:50;6.97;;;3.90;;
21299;SDS011;10809;49.476;11.016;2023-03-20T18:12:21;6.00;;;4.20;;
21299;SDS011;10809;49.476;11.016;2023-03-20T18:14:51;5.63;;;4.43;;
21299;SDS011;10809;49.476;11.016;2023-03-20T18:17:22;6.60;;;4.60;;
21299;SDS011;10809;49.476;11.016;2023-03-20T18:19:52;8.20;;;5.63;;
21299;SDS011;10809;49.476;11.016;2023-03-20T18:22:23;7.67;;;5.40;;
21299;SDS011;10809;49.476;11.016;2023-03-20T18:24:53;6.97;;;5.43;;
21299;SDS011;10809;49.476;11.016;2023-03-20T18:27:23;7.07;;;4.80;;
21299;SDS011;10809;49.476;11.016;2023-03-20T18:29:57;6.40;;;4.77;;
21299;SDS011;10809;49.476;11.016;2023-03-20T18:32:28;7.37;;;5.03;;
21299;SDS011;10809;49.476;11.016;2023-03-20T18:34:58;6.20;;;4.07;;
21299;SDS011;10809;49.476;11.016;2023-03-20T18:37:29;5.23;;;4.13;;
21299;SDS011;10809;49.476;11.016;2023-03-20T18:39:59;6.20;;;4.30;;
21299;SDS011;10809;49.476;11.016;2023-03-20T18:42:30;5.23;;;4.00;;